createdAt,value
2018-07-25T00:00:07.859Z,25.23
2018-07-25T00:02:35.897Z,25.17
2018-07-25T00:05:05.169Z,25.15
2018-07-25T00:07:33.204Z,25.10
2018-07-25T00:10:01.236Z,25.06
2018-07-25T00:12:29.264Z,25.02
2018-07-25T00:14:58.004Z,25.04
2018-07-25T00:17:26.278Z,25.06
2018-07-25T00:19:54.292Z,25.04
2018-07-25T00:22:22.320Z,25.08
2018-07-25T00:24:50.364Z,25.10
2018-07-25T00:27:18.393Z,25.11
2018-07-25T00:29:46.441Z,25.11
2018-07-25T00:32:14.473Z,25.13
2018-07-25T00:34:42.514Z,25.07
2018-07-25T00:37:10.569Z,25.03
2018-07-25T00:39:38.606Z,25.00
2018-07-25T00:42:06.697Z,24.98
2018-07-25T00:44:34.732Z,25.01
2018-07-25T00:47:02.781Z,25.03
2018-07-25T00:49:30.808Z,24.96
2018-07-25T00:51:58.857Z,24.88
2018-07-25T00:54:27.905Z,24.90
2018-07-25T00:56:55.962Z,24.84
2018-07-25T00:59:23.996Z,24.80
2018-07-25T01:01:52.033Z,24.79
2018-07-25T01:04:20.073Z,24.86
2018-07-25T01:06:48.121Z,24.90
2018-07-25T01:09:16.149Z,24.96
2018-07-25T01:11:44.184Z,24.99
2018-07-25T01:14:12.391Z,24.93
2018-07-25T01:16:40.434Z,24.90
2018-07-25T01:19:08.465Z,24.87
2018-07-25T01:21:36.501Z,24.81
2018-07-25T01:24:04.973Z,24.78
2018-07-25T01:26:32.997Z,24.78
2018-07-25T01:29:01.088Z,24.79
2018-07-25T01:31:29.116Z,24.81
2018-07-25T01:33:57.161Z,24.82
2018-07-25T01:36:25.199Z,24.84
2018-07-25T01:38:53.261Z,24.83
2018-07-25T01:41:21.302Z,24.86
2018-07-25T01:43:49.352Z,24.88
2018-07-25T01:46:17.416Z,24.90
2018-07-25T01:48:45.441Z,24.94
2018-07-25T01:51:13.498Z,24.88
2018-07-25T01:53:41.529Z,24.82
2018-07-25T01:56:09.577Z,24.80
2018-07-25T01:58:37.628Z,24.87
2018-07-25T02:01:05.675Z,24.93
2018-07-25T02:03:33.696Z,24.94
2018-07-25T02:06:01.757Z,24.97
2018-07-25T02:08:29.777Z,24.95
2018-07-25T02:10:57.813Z,24.97
2018-07-25T02:13:25.840Z,24.96
2018-07-25T02:15:53.885Z,24.95
2018-07-25T02:18:21.923Z,24.96
2018-07-25T02:20:49.962Z,24.95
2018-07-25T02:23:18.149Z,24.96
2018-07-25T02:25:46.173Z,24.95
2018-07-25T02:28:14.241Z,24.98
2018-07-25T02:30:42.309Z,25.00
2018-07-25T02:33:10.334Z,25.00
2018-07-25T02:35:38.357Z,24.97
2018-07-25T02:38:06.421Z,25.00
2018-07-25T02:40:34.455Z,24.99
2018-07-25T02:43:02.512Z,24.99
2018-07-25T02:45:35.713Z,24.98
2018-07-25T02:48:03.774Z,24.90
2018-07-25T02:50:31.824Z,24.83
2018-07-25T02:52:59.870Z,24.82
2018-07-25T02:55:27.917Z,24.73
2018-07-25T02:57:55.972Z,24.70
2018-07-25T03:00:24.000Z,24.66
2018-07-25T03:02:52.986Z,24.66
2018-07-25T03:05:21.049Z,24.65
2018-07-25T03:07:49.093Z,24.60
2018-07-25T03:10:17.258Z,24.60
2018-07-25T03:12:45.303Z,24.64
2018-07-25T03:15:13.328Z,24.63
2018-07-25T03:17:41.364Z,24.62
2018-07-25T03:20:09.421Z,24.64
2018-07-25T03:22:37.468Z,24.65
2018-07-25T03:25:05.524Z,24.63
2018-07-25T03:27:33.592Z,24.58
2018-07-25T03:30:01.629Z,24.52
2018-07-25T03:32:29.683Z,24.43
2018-07-25T03:34:57.736Z,24.37
2018-07-25T03:37:25.862Z,24.41
2018-07-25T03:39:53.901Z,24.45
2018-07-25T03:42:22.064Z,24.48
2018-07-25T03:44:50.126Z,24.44
2018-07-25T03:47:18.488Z,24.34
2018-07-25T03:49:46.686Z,24.26
2018-07-25T03:52:14.739Z,24.18
2018-07-25T03:54:42.869Z,24.08
2018-07-25T03:57:11.067Z,24.03
2018-07-25T03:59:39.128Z,23.99
2018-07-25T04:02:07.214Z,23.92
2018-07-25T04:04:35.425Z,23.87
2018-07-25T04:07:03.709Z,23.85
2018-07-25T04:09:31.774Z,23.89
2018-07-25T04:11:59.961Z,23.96
2018-07-25T04:14:28.005Z,23.99
2018-07-25T04:16:56.048Z,24.02
2018-07-25T04:19:24.469Z,24.03
2018-07-25T04:21:52.513Z,24.07
2018-07-25T04:24:20.574Z,24.02
2018-07-25T04:26:48.624Z,24.01
2018-07-25T04:29:16.648Z,24.00
2018-07-25T04:31:44.708Z,24.03
2018-07-25T04:34:12.757Z,24.07
2018-07-25T04:36:40.965Z,24.10
2018-07-25T04:39:11.144Z,24.14
2018-07-25T04:41:39.433Z,24.29
2018-07-25T04:44:07.485Z,24.31
2018-07-25T04:46:35.604Z,24.35
2018-07-25T04:49:03.776Z,24.37
2018-07-25T04:51:31.896Z,24.40
2018-07-25T04:53:59.961Z,24.42
2018-07-25T04:56:28.012Z,24.44
2018-07-25T04:58:56.030Z,24.43
2018-07-25T05:01:24.085Z,24.47
2018-07-25T05:03:52.125Z,24.52
2018-07-25T05:06:20.180Z,24.50
2018-07-25T05:08:48.241Z,24.49
2018-07-25T05:11:16.283Z,24.48
2018-07-25T05:13:44.356Z,24.51
2018-07-25T05:16:12.436Z,24.51
2018-07-25T05:18:40.484Z,24.53
2018-07-25T05:21:08.517Z,24.58
2018-07-25T05:23:36.565Z,24.61
2018-07-25T05:26:04.913Z,24.67
2018-07-25T05:28:32.976Z,24.68
2018-07-25T05:31:01.127Z,24.74
2018-07-25T05:33:29.182Z,24.76
2018-07-25T05:35:57.236Z,24.80
2018-07-25T05:38:25.284Z,24.82
2018-07-25T05:40:53.329Z,24.88
2018-07-25T05:43:21.523Z,24.90
2018-07-25T05:45:49.582Z,24.97
2018-07-25T05:48:17.641Z,24.96
2018-07-25T05:50:45.687Z,24.95
2018-07-25T05:53:13.742Z,24.98
2018-07-25T05:55:41.770Z,25.00
2018-07-25T05:58:09.860Z,25.06
2018-07-25T06:00:37.881Z,25.16
2018-07-25T06:03:06.028Z,25.26
2018-07-25T06:05:34.145Z,25.34
2018-07-25T06:08:02.273Z,25.46
2018-07-25T06:10:30.334Z,25.58
2018-07-25T06:12:59.164Z,25.71
2018-07-25T06:15:27.818Z,25.82
2018-07-25T06:17:55.880Z,25.95
2018-07-25T06:20:23.934Z,26.00
2018-07-25T06:22:51.994Z,26.13
2018-07-25T06:25:20.061Z,26.22
2018-07-25T06:27:48.136Z,26.25
2018-07-25T06:30:16.188Z,26.30
2018-07-25T06:32:44.256Z,26.41
2018-07-25T06:35:12.388Z,26.51
2018-07-25T06:37:40.426Z,26.59
2018-07-25T06:40:08.513Z,26.81
2018-07-25T06:42:36.771Z,27.04
2018-07-25T06:45:05.651Z,27.10
2018-07-25T06:47:33.875Z,27.19
2018-07-25T06:50:01.962Z,27.31
2018-07-25T06:52:30.021Z,27.35
2018-07-25T06:54:58.069Z,27.54
2018-07-25T06:57:26.196Z,27.68
2018-07-25T06:59:54.182Z,27.84
2018-07-25T07:02:22.225Z,27.91
2018-07-25T07:04:50.279Z,27.97
2018-07-25T07:07:18.540Z,28.11
2018-07-25T07:09:46.601Z,28.28
2018-07-25T07:12:15.040Z,28.52
2018-07-25T07:14:43.017Z,28.66
2018-07-25T07:17:11.460Z,28.78
2018-07-25T07:19:39.508Z,29.02
2018-07-25T07:22:07.569Z,29.25
2018-07-25T07:24:35.625Z,29.31
2018-07-25T07:27:03.699Z,29.45
2018-07-25T07:29:31.764Z,29.38
2018-07-25T07:31:59.805Z,29.33
2018-07-25T07:34:27.847Z,29.34
2018-07-25T07:36:55.886Z,29.42
2018-07-25T07:39:23.957Z,29.54
2018-07-25T07:41:52.009Z,29.69
2018-07-25T07:44:20.092Z,29.96
2018-07-25T07:46:48.278Z,30.24
2018-07-25T07:49:16.320Z,30.51
2018-07-25T07:51:44.365Z,30.61
2018-07-25T07:54:12.420Z,30.71
2018-07-25T07:56:40.482Z,30.65
2018-07-25T07:59:08.526Z,30.61
2018-07-25T08:01:36.564Z,30.81
2018-07-25T08:04:04.988Z,31.07
2018-07-25T08:06:33.051Z,31.20
2018-07-25T08:09:01.096Z,31.22
2018-07-25T08:11:29.152Z,31.41
2018-07-25T08:13:57.188Z,31.54
2018-07-25T08:16:25.258Z,31.61
2018-07-25T08:18:53.448Z,31.62
2018-07-25T08:21:21.497Z,31.84
2018-07-25T08:23:49.535Z,31.93
2018-07-25T08:26:17.597Z,32.13
2018-07-25T08:28:45.620Z,32.23
2018-07-25T08:31:13.658Z,32.34
2018-07-25T08:33:41.818Z,32.54
2018-07-25T08:36:09.861Z,32.83
2018-07-25T08:38:40.054Z,33.03
2018-07-25T08:41:08.220Z,33.22
2018-07-25T08:43:37.174Z,33.09
2018-07-25T08:46:05.639Z,33.24
2018-07-25T08:48:33.670Z,33.19
2018-07-25T08:51:01.999Z,33.35
2018-07-25T08:53:30.092Z,33.53
2018-07-25T08:55:58.448Z,33.65
2018-07-25T08:58:26.500Z,33.86
2018-07-25T09:00:54.544Z,33.83
2018-07-25T09:03:22.954Z,33.70
2018-07-25T09:05:50.988Z,33.71
2018-07-25T09:08:19.021Z,33.84
2018-07-25T09:10:47.091Z,33.98
2018-07-25T09:13:15.121Z,34.13
2018-07-25T09:15:43.204Z,34.34
2018-07-25T09:18:11.266Z,34.44
2018-07-25T09:20:39.366Z,34.43
2018-07-25T09:23:07.404Z,34.46
2018-07-25T09:25:35.535Z,34.52
2018-07-25T09:28:03.509Z,34.67
2018-07-25T09:30:32.251Z,34.66
2018-07-25T09:33:00.287Z,34.72
2018-07-25T09:35:28.508Z,35.05
2018-07-25T09:37:56.554Z,35.28
2018-07-25T09:40:24.565Z,35.47
2018-07-25T09:42:52.618Z,35.41
2018-07-25T09:45:20.671Z,35.47
2018-07-25T09:47:49.695Z,35.58
2018-07-25T09:50:18.213Z,35.64
2018-07-25T09:52:46.264Z,35.78
2018-07-25T09:55:14.289Z,35.99
2018-07-25T09:57:42.334Z,36.20
2018-07-25T10:00:12.014Z,36.32
2018-07-25T10:02:40.758Z,36.44
2018-07-25T10:05:09.662Z,36.43
2018-07-25T10:07:37.732Z,36.54
2018-07-25T10:10:06.298Z,36.51
2018-07-25T10:12:34.358Z,36.35
2018-07-25T10:15:03.525Z,36.22
2018-07-25T10:17:31.450Z,36.27
2018-07-25T10:19:59.488Z,36.38
2018-07-25T10:22:27.568Z,36.32
2018-07-25T10:24:55.574Z,36.31
2018-07-25T10:27:23.719Z,36.40
2018-07-25T10:29:51.644Z,36.41
2018-07-25T10:32:19.699Z,36.48
2018-07-25T10:34:47.908Z,36.44
2018-07-25T10:37:16.751Z,36.38
2018-07-25T10:39:44.790Z,36.21
2018-07-25T10:42:12.853Z,36.24
2018-07-25T10:44:40.886Z,36.29
2018-07-25T10:47:09.146Z,36.03
2018-07-25T10:49:37.359Z,36.00
2018-07-25T10:52:05.400Z,35.94
2018-07-25T10:54:33.445Z,35.90
2018-07-25T10:57:01.503Z,36.01
2018-07-25T10:59:29.545Z,36.02
2018-07-25T11:01:57.586Z,36.15
2018-07-25T11:04:25.648Z,36.32
2018-07-25T11:06:53.670Z,36.44
2018-07-25T11:09:21.736Z,36.56
2018-07-25T11:11:49.759Z,36.66
2018-07-25T11:14:17.798Z,36.75
2018-07-25T11:16:45.870Z,36.67
2018-07-25T11:19:13.911Z,36.47
2018-07-25T11:21:41.945Z,36.41
2018-07-25T11:24:10.125Z,36.56
2018-07-25T11:26:38.155Z,36.53
2018-07-25T11:29:06.183Z,36.49
2018-07-25T11:31:34.235Z,36.57
2018-07-25T11:34:02.266Z,36.68
2018-07-25T11:36:30.300Z,36.60
2018-07-25T11:38:58.338Z,36.66
2018-07-25T11:41:26.384Z,36.59
2018-07-25T11:43:54.425Z,36.67
2018-07-25T11:46:22.457Z,36.86
2018-07-25T11:48:50.521Z,36.91
2018-07-25T11:51:18.545Z,36.90
2018-07-25T11:53:46.585Z,36.79
2018-07-25T11:56:14.723Z,36.84
2018-07-25T11:58:42.786Z,36.93
2018-07-25T12:01:10.878Z,37.00
2018-07-25T12:03:38.877Z,37.07
2018-07-25T12:06:07.113Z,37.00
2018-07-25T12:08:35.161Z,37.06
2018-07-25T12:11:03.371Z,37.11
2018-07-25T12:13:31.433Z,37.16
2018-07-25T12:15:59.480Z,37.11
2018-07-25T12:18:27.520Z,36.95
2018-07-25T12:20:55.572Z,37.04
2018-07-25T12:23:23.641Z,37.13
2018-07-25T12:25:51.682Z,37.03
2018-07-25T12:28:19.752Z,36.96
2018-07-25T12:30:48.429Z,36.98
2018-07-25T12:33:16.588Z,37.09
2018-07-25T12:35:44.629Z,37.25
2018-07-25T12:38:12.705Z,37.26
2018-07-25T12:40:40.741Z,36.98
2018-07-25T12:43:08.781Z,36.76
2018-07-25T12:45:36.838Z,36.74
2018-07-25T12:48:04.959Z,37.02
2018-07-25T12:50:33.037Z,37.24
2018-07-25T12:53:01.125Z,37.28
2018-07-25T12:55:29.897Z,37.32
2018-07-25T12:57:57.951Z,37.38
2018-07-25T13:00:26.034Z,37.22
2018-07-25T13:02:54.171Z,37.35
2018-07-25T13:05:22.147Z,37.45
2018-07-25T13:07:50.233Z,37.54
2018-07-25T13:10:18.289Z,37.64
2018-07-25T13:12:46.473Z,37.69
2018-07-25T13:15:14.513Z,37.56
2018-07-25T13:17:42.706Z,37.54
2018-07-25T13:20:10.751Z,37.46
2018-07-25T13:22:38.809Z,37.52
2018-07-25T13:25:07.135Z,37.43
2018-07-25T13:27:35.270Z,37.38
2018-07-25T13:30:03.422Z,37.37
2018-07-25T13:32:31.473Z,37.24
2018-07-25T13:34:59.540Z,37.32
2018-07-25T13:37:27.576Z,37.17
2018-07-25T13:39:56.585Z,37.08
2018-07-25T13:42:25.516Z,37.11
2018-07-25T13:44:53.593Z,37.21
2018-07-25T13:47:21.658Z,37.22
2018-07-25T13:49:49.684Z,37.23
2018-07-25T13:52:17.751Z,37.41
2018-07-25T13:54:45.832Z,37.50
2018-07-25T13:57:13.871Z,37.58
2018-07-25T13:59:41.916Z,37.59
2018-07-25T14:02:09.948Z,37.51
2018-07-25T14:04:38.009Z,37.35
2018-07-25T14:07:06.058Z,37.32
2018-07-25T14:09:34.219Z,37.36
2018-07-25T14:12:03.490Z,37.49
2018-07-25T14:14:31.485Z,37.46
2018-07-25T14:16:59.525Z,37.47
2018-07-25T14:19:27.585Z,37.53
2018-07-25T14:21:55.637Z,37.58
2018-07-25T14:24:23.797Z,37.66
2018-07-25T14:26:51.835Z,37.77
2018-07-25T14:29:19.876Z,37.76
2018-07-25T14:31:47.869Z,37.50
2018-07-25T14:34:16.713Z,37.49
2018-07-25T14:36:44.677Z,37.56
2018-07-25T14:39:12.837Z,37.50
2018-07-25T14:41:41.432Z,37.26
2018-07-25T14:44:10.701Z,37.22
2018-07-25T14:46:38.787Z,37.23
2018-07-25T14:49:06.842Z,37.33
2018-07-25T14:51:34.989Z,37.31
2018-07-25T14:54:02.935Z,37.17
2018-07-25T14:56:31.280Z,37.12
2018-07-25T14:58:59.586Z,37.23
2018-07-25T15:01:27.650Z,37.33
2018-07-25T15:03:55.676Z,37.25
2018-07-25T15:06:23.729Z,37.13
2018-07-25T15:08:51.759Z,37.13
2018-07-25T15:11:20.392Z,37.15
2018-07-25T15:13:48.709Z,37.13
2018-07-25T15:16:17.094Z,37.10
2018-07-25T15:18:45.109Z,37.05
2018-07-25T15:21:13.412Z,37.16
2018-07-25T15:23:53.399Z,37.27
2018-07-25T15:26:22.513Z,37.15
2018-07-25T15:28:50.578Z,37.15
2018-07-25T15:31:19.080Z,37.23
2018-07-25T15:33:47.456Z,37.33
2018-07-25T15:36:50.408Z,37.28
2018-07-25T15:39:21.472Z,37.18
2018-07-25T15:41:50.384Z,37.08
2018-07-25T15:44:19.280Z,37.10
2018-07-25T15:46:47.347Z,37.11
2018-07-25T15:49:15.364Z,37.11
2018-07-25T15:51:43.427Z,36.97
2018-07-25T15:54:11.870Z,36.89
2018-07-25T15:56:39.986Z,36.81
2018-07-25T15:59:08.320Z,36.76
2018-07-25T16:01:36.380Z,36.70
2018-07-25T16:04:04.955Z,36.61
2018-07-25T16:06:32.999Z,36.54
2018-07-25T16:09:01.022Z,36.47
2018-07-25T16:11:29.077Z,36.42
2018-07-25T16:13:57.913Z,36.42
2018-07-25T16:16:25.958Z,36.38
2018-07-25T16:18:53.983Z,36.40
2018-07-25T16:21:22.021Z,36.37
2018-07-25T16:23:50.094Z,36.36
2018-07-25T16:26:18.071Z,36.26
2018-07-25T16:28:46.166Z,36.03
2018-07-25T16:31:14.197Z,35.36
2018-07-25T16:33:42.256Z,34.59
2018-07-25T16:36:10.369Z,34.03
2018-07-25T16:38:38.763Z,33.58
2018-07-25T16:41:06.874Z,33.35
2018-07-25T16:43:34.919Z,33.05
2018-07-25T16:46:02.978Z,32.64
2018-07-25T16:48:31.006Z,32.26
2018-07-25T16:50:59.046Z,31.77
2018-07-25T16:53:27.090Z,31.58
2018-07-25T16:55:55.135Z,31.62
2018-07-25T16:58:23.176Z,31.85
2018-07-25T17:00:51.210Z,32.10
2018-07-25T17:03:19.245Z,32.07
2018-07-25T17:05:47.276Z,32.13
2018-07-25T17:08:15.284Z,32.12
2018-07-25T17:10:43.345Z,32.12
2018-07-25T17:13:11.632Z,32.13
2018-07-25T17:15:39.658Z,32.14
2018-07-25T17:18:07.689Z,32.01
2018-07-25T17:20:35.748Z,31.67
2018-07-25T17:23:04.512Z,31.30
2018-07-25T17:25:32.532Z,30.90
2018-07-25T17:28:00.556Z,30.76
2018-07-25T17:30:28.598Z,30.32
2018-07-25T17:32:56.786Z,29.72
2018-07-25T17:35:25.330Z,29.20
2018-07-25T17:37:53.282Z,28.97
2018-07-25T17:40:21.301Z,29.16
2018-07-25T17:42:49.344Z,29.33
2018-07-25T17:45:17.369Z,29.45
2018-07-25T17:47:45.401Z,29.24
2018-07-25T17:50:13.846Z,29.25
2018-07-25T17:52:41.874Z,28.89
2018-07-25T17:55:09.917Z,28.66
2018-07-25T17:57:37.937Z,28.63
2018-07-25T18:00:07.958Z,28.73
2018-07-25T18:02:35.980Z,28.82
2018-07-25T18:05:05.312Z,28.56
2018-07-25T18:07:33.332Z,27.76
2018-07-25T18:10:01.348Z,27.51
2018-07-25T18:12:29.368Z,27.66
2018-07-25T18:14:57.404Z,27.91
2018-07-25T18:17:32.124Z,28.09
2018-07-25T18:20:00.208Z,28.03
2018-07-25T18:22:28.237Z,27.56
2018-07-25T18:24:56.269Z,26.97
2018-07-25T18:27:24.629Z,26.65
2018-07-25T18:29:52.700Z,26.34
2018-07-25T18:32:20.738Z,26.08
2018-07-25T18:34:48.842Z,25.77
2018-07-25T18:37:16.848Z,25.49
2018-07-25T18:39:44.881Z,25.20
2018-07-25T18:42:12.910Z,25.03
2018-07-25T18:44:40.986Z,24.86
2018-07-25T18:47:09.049Z,24.82
2018-07-25T18:49:37.049Z,24.81
2018-07-25T18:52:05.108Z,24.75
2018-07-25T18:54:33.140Z,24.74
2018-07-25T18:57:01.162Z,24.77
2018-07-25T18:59:29.193Z,24.73
2018-07-25T19:01:57.263Z,24.67
2018-07-25T19:04:25.229Z,24.69
2018-07-25T19:06:53.250Z,24.73
2018-07-25T19:09:21.281Z,24.80
2018-07-25T19:11:49.320Z,24.82
2018-07-25T19:14:22.818Z,24.86
2018-07-25T19:16:50.843Z,24.88
2018-07-25T19:19:18.868Z,24.85
2018-07-25T19:21:46.917Z,24.81
2018-07-25T19:24:14.937Z,24.85
2018-07-25T19:26:42.974Z,24.87
2018-07-25T19:29:11.008Z,24.88
2018-07-25T19:31:39.034Z,24.82
2018-07-25T19:34:07.065Z,24.75
2018-07-25T19:36:35.096Z,24.75
2018-07-25T19:39:03.190Z,24.72
2018-07-25T19:41:31.222Z,24.74
2018-07-25T19:43:59.245Z,24.72
2018-07-25T19:46:27.308Z,24.71
2018-07-25T19:48:55.346Z,24.72
2018-07-25T19:51:23.372Z,24.69
2018-07-25T19:53:51.414Z,24.63
2018-07-25T19:56:19.462Z,24.65
2018-07-25T19:58:47.482Z,24.66
2018-07-25T20:01:15.524Z,24.64
2018-07-25T20:03:43.573Z,24.66
2018-07-25T20:06:11.632Z,24.65
2018-07-25T20:08:39.681Z,24.65
2018-07-25T20:11:07.998Z,24.63
2018-07-25T20:13:40.233Z,24.64
2018-07-25T20:16:08.275Z,24.61
2018-07-25T20:18:36.306Z,24.58
2018-07-25T20:21:04.791Z,24.57
2018-07-25T20:23:32.789Z,24.56
2018-07-25T20:26:00.817Z,24.54
2018-07-25T20:28:28.869Z,24.51
2018-07-25T20:30:56.897Z,24.47
2018-07-25T20:33:24.986Z,24.49
2018-07-25T20:35:53.012Z,24.52
2018-07-25T20:38:21.026Z,24.55
2018-07-25T20:40:49.073Z,24.60
2018-07-25T20:43:17.576Z,24.60
2018-07-25T20:45:45.605Z,24.60
2018-07-25T20:48:13.644Z,24.61
2018-07-25T20:50:41.706Z,24.60
2018-07-25T20:53:09.745Z,24.58
2018-07-25T20:55:37.781Z,24.57
2018-07-25T20:58:05.829Z,24.52
2018-07-25T21:00:34.433Z,24.52
2018-07-25T21:03:03.500Z,24.47
2018-07-25T21:05:31.994Z,24.45
2018-07-25T21:08:00.051Z,24.43
2018-07-25T21:10:28.090Z,24.44
2018-07-25T21:12:56.104Z,24.47
2018-07-25T21:15:24.439Z,24.49
2018-07-25T21:17:52.490Z,24.49
2018-07-25T21:20:20.532Z,24.47
2018-07-25T21:22:48.613Z,24.47
2018-07-25T21:25:16.688Z,24.49
2018-07-25T21:27:44.733Z,24.49
2018-07-25T21:30:12.785Z,24.46
2018-07-25T21:32:40.930Z,24.40
2018-07-25T21:35:09.026Z,24.41
2018-07-25T21:37:37.073Z,24.42
2018-07-25T21:40:05.275Z,24.42
2018-07-25T21:42:33.378Z,24.42
2018-07-25T21:45:01.427Z,24.42
2018-07-25T21:47:29.477Z,24.40
2018-07-25T21:49:57.516Z,24.37
2018-07-25T21:52:25.550Z,24.39
2018-07-25T21:54:53.608Z,24.33
2018-07-25T21:57:21.672Z,24.33
2018-07-25T21:59:49.788Z,24.34
2018-07-25T22:02:17.851Z,24.35
2018-07-25T22:04:45.875Z,24.32
2018-07-25T22:07:13.925Z,24.32
2018-07-25T22:09:41.983Z,24.34
2018-07-25T22:12:10.067Z,24.37
2018-07-25T22:14:38.094Z,24.40
2018-07-25T22:17:06.164Z,24.37
2018-07-25T22:19:34.202Z,24.39
2018-07-25T22:22:02.238Z,24.36
2018-07-25T22:24:30.282Z,24.35
2018-07-25T22:26:58.330Z,24.36
2018-07-25T22:29:26.400Z,24.37
2018-07-25T22:31:54.429Z,24.37
2018-07-25T22:34:22.482Z,24.38
2018-07-25T22:36:50.549Z,24.39
2018-07-25T22:39:18.580Z,24.40
2018-07-25T22:41:46.612Z,24.42
2018-07-25T22:44:14.681Z,24.38
2018-07-25T22:46:42.730Z,24.40
2018-07-25T22:49:10.783Z,24.42
2018-07-25T22:51:38.824Z,24.44
2018-07-25T22:54:06.869Z,24.42
2018-07-25T22:56:34.913Z,24.45
2018-07-25T22:59:03.021Z,24.45
2018-07-25T23:01:31.074Z,24.42
2018-07-25T23:03:59.106Z,24.44
2018-07-25T23:06:27.192Z,24.41
2018-07-25T23:08:55.221Z,24.42
2018-07-25T23:11:23.270Z,24.41
2018-07-25T23:13:51.323Z,24.42
2018-07-25T23:16:19.377Z,24.39
2018-07-25T23:18:47.657Z,24.38
2018-07-25T23:21:15.683Z,24.36
2018-07-25T23:23:43.717Z,24.37
2018-07-25T23:26:11.744Z,24.37
2018-07-25T23:28:39.774Z,24.37
2018-07-25T23:31:07.857Z,24.38
2018-07-25T23:33:35.894Z,24.38
2018-07-25T23:36:03.917Z,24.37
2018-07-25T23:38:31.952Z,24.34
2018-07-25T23:41:00.007Z,24.32
2018-07-25T23:43:28.050Z,24.31
2018-07-25T23:45:56.102Z,24.32
2018-07-25T23:48:24.144Z,24.29
2018-07-25T23:50:52.202Z,24.29
2018-07-25T23:53:20.269Z,24.29
2018-07-25T23:55:48.305Z,24.25
2018-07-25T23:58:16.340Z,24.24
